Portada
METAR-TAF:

METAR-TAF

Aeroports :

Aeroport d'Oslo-Gardermoen

Oslo, Noruega

latitud: 60-12N, longitud: 011-05E, altitud: 208 m

Observació

L'informe es va fer fa 24 minuts, a les 06:20 UTC
Vent 14 kt del Nord
Temperatura -5°C
Humitat 73%
Pressió 994 hPa
Visibilitat 10 km o més
Escasses núvols a una alçada de 2400 ft

METAR: ENGM 260620Z 01014KT 9999 FEW024 M05/M09 Q0994 NOSIG

Hora: 07:44 (06:44 UTC)

Pronòstic

Pronòstic vàlid del 26 a les 06 UTC al 27 a les 06 UTC
Vent 12 kt del Nord/Nord-Est
Visibilitat 10 km o més
sense núvols per sota de 1500 mi sense presència de cumulonimbus.
Evolucionant progressivament
l' 26 a les 16 UTC al 26 a les 19 UTC
Vent 5 kt amb direcció variable

TAF: ENGM 2606/2706 02012KT CAVOK BECMG 2616/2619 VRB05KT

Observacions i pronòstics meteorològics de més de 4000 aeroports (METAR i TAF).

Les estacions disponibles són els punts grocs i vermells al mapa.

Posi el ratolí al punt desitjat per veure el nom de l'estació.

Feu clic per veure les observacions i els pronòstics meteorològics.

Per canviar el mapa: feu clic els botons verds amb una creu de color negre per apropar; al botó verd amb un guió per allunyar la imatge; o en les fletxes verdes per a mapes adjacents.


METAR-TAF: